sensor_id;sensor_type;location;lat;lon;timestamp;P1;durP1;ratioP1;P2;durP2;ratioP2
8895;SDS011;4484;48.928;10.066;2023-12-04T00:01:15;16.40;;;10.10;;
8895;SDS011;4484;48.928;10.066;2023-12-04T00:03:43;14.27;;;9.07;;
8895;SDS011;4484;48.928;10.066;2023-12-04T00:06:10;13.77;;;10.07;;
8895;SDS011;4484;48.928;10.066;2023-12-04T00:08:38;15.40;;;9.87;;
8895;SDS011;4484;48.928;10.066;2023-12-04T00:11:05;14.87;;;10.00;;
8895;SDS011;4484;48.928;10.066;2023-12-04T00:13:33;15.63;;;9.63;;
8895;SDS011;4484;48.928;10.066;2023-12-04T00:16:01;14.37;;;9.50;;
8895;SDS011;4484;48.928;10.066;2023-12-04T00:18:28;15.13;;;9.50;;
8895;SDS011;4484;48.928;10.066;2023-12-04T00:20:57;15.47;;;9.17;;
8895;SDS011;4484;48.928;10.066;2023-12-04T00:23:24;12.97;;;8.37;;
8895;SDS011;4484;48.928;10.066;2023-12-04T00:25:51;15.70;;;9.53;;
8895;SDS011;4484;48.928;10.066;2023-12-04T00:28:18;12.80;;;8.90;;
8895;SDS011;4484;48.928;10.066;2023-12-04T00:30:45;14.27;;;9.83;;
8895;SDS011;4484;48.928;10.066;2023-12-04T00:33:12;17.73;;;9.73;;
8895;SDS011;4484;48.928;10.066;2023-12-04T00:35:39;14.27;;;9.37;;
8895;SDS011;4484;48.928;10.066;2023-12-04T00:38:06;16.47;;;10.23;;
8895;SDS011;4484;48.928;10.066;2023-12-04T00:40:33;15.67;;;9.77;;
8895;SDS011;4484;48.928;10.066;2023-12-04T00:43:00;17.83;;;10.67;;
8895;SDS011;4484;48.928;10.066;2023-12-04T00:45:27;13.13;;;9.17;;
8895;SDS011;4484;48.928;10.066;2023-12-04T00:47:54;14.27;;;9.27;;
8895;SDS011;4484;48.928;10.066;2023-12-04T00:50:21;14.07;;;8.83;;
8895;SDS011;4484;48.928;10.066;2023-12-04T00:52:48;14.00;;;8.97;;
8895;SDS011;4484;48.928;10.066;2023-12-04T00:55:15;13.97;;;8.87;;
8895;SDS011;4484;48.928;10.066;2023-12-04T00:57:42;15.90;;;9.37;;
8895;SDS011;4484;48.928;10.066;2023-12-04T01:00:09;13.50;;;8.73;;
8895;SDS011;4484;48.928;10.066;2023-12-04T01:02:36;12.93;;;8.63;;
8895;SDS011;4484;48.928;10.066;2023-12-04T01:05:03;11.33;;;7.97;;
8895;SDS011;4484;48.928;10.066;2023-12-04T01:07:30;13.37;;;8.20;;
8895;SDS011;4484;48.928;10.066;2023-12-04T01:09:57;13.40;;;8.83;;
8895;SDS011;4484;48.928;10.066;2023-12-04T01:12:24;12.50;;;8.83;;
8895;SDS011;4484;48.928;10.066;2023-12-04T01:14:51;12.83;;;7.87;;
8895;SDS011;4484;48.928;10.066;2023-12-04T01:17:19;15.37;;;9.70;;
8895;SDS011;4484;48.928;10.066;2023-12-04T01:19:45;13.33;;;8.60;;
8895;SDS011;4484;48.928;10.066;2023-12-04T01:22:12;12.90;;;8.30;;
8895;SDS011;4484;48.928;10.066;2023-12-04T01:24:39;12.53;;;8.07;;
8895;SDS011;4484;48.928;10.066;2023-12-04T01:27:06;13.70;;;8.67;;
8895;SDS011;4484;48.928;10.066;2023-12-04T01:29:33;14.43;;;9.37;;
8895;SDS011;4484;48.928;10.066;2023-12-04T01:32:01;17.87;;;9.60;;
8895;SDS011;4484;48.928;10.066;2023-12-04T01:34:28;14.63;;;8.63;;
8895;SDS011;4484;48.928;10.066;2023-12-04T01:36:55;14.33;;;9.40;;
8895;SDS011;4484;48.928;10.066;2023-12-04T01:39:22;16.67;;;9.47;;
8895;SDS011;4484;48.928;10.066;2023-12-04T01:41:49;13.33;;;8.27;;
8895;SDS011;4484;48.928;10.066;2023-12-04T01:44:16;12.07;;;7.90;;
8895;SDS011;4484;48.928;10.066;2023-12-04T01:46:44;12.87;;;8.53;;
8895;SDS011;4484;48.928;10.066;2023-12-04T01:49:11;11.83;;;8.10;;
8895;SDS011;4484;48.928;10.066;2023-12-04T01:51:38;13.13;;;8.83;;
8895;SDS011;4484;48.928;10.066;2023-12-04T01:54:05;12.87;;;8.33;;
8895;SDS011;4484;48.928;10.066;2023-12-04T01:56:33;13.73;;;8.73;;
8895;SDS011;4484;48.928;10.066;2023-12-04T01:59:02;12.17;;;7.93;;
8895;SDS011;4484;48.928;10.066;2023-12-04T02:01:30;11.13;;;7.80;;
8895;SDS011;4484;48.928;10.066;2023-12-04T02:03:57;13.30;;;8.67;;
8895;SDS011;4484;48.928;10.066;2023-12-04T02:06:27;11.73;;;7.80;;
8895;SDS011;4484;48.928;10.066;2023-12-04T02:08:54;15.00;;;9.23;;
8895;SDS011;4484;48.928;10.066;2023-12-04T02:11:21;14.27;;;8.93;;
8895;SDS011;4484;48.928;10.066;2023-12-04T02:13:48;12.77;;;8.03;;
8895;SDS011;4484;48.928;10.066;2023-12-04T02:16:15;14.70;;;9.13;;
8895;SDS011;4484;48.928;10.066;2023-12-04T02:18:45;15.00;;;9.17;;
8895;SDS011;4484;48.928;10.066;2023-12-04T02:21:13;14.87;;;9.23;;
8895;SDS011;4484;48.928;10.066;2023-12-04T02:23:39;13.37;;;9.23;;
8895;SDS011;4484;48.928;10.066;2023-12-04T02:26:10;13.77;;;8.67;;
8895;SDS011;4484;48.928;10.066;2023-12-04T02:28:42;13.87;;;8.53;;
8895;SDS011;4484;48.928;10.066;2023-12-04T02:31:14;12.97;;;8.00;;
8895;SDS011;4484;48.928;10.066;2023-12-04T02:33:43;15.50;;;8.30;;
8895;SDS011;4484;48.928;10.066;2023-12-04T02:36:11;12.67;;;8.07;;
8895;SDS011;4484;48.928;10.066;2023-12-04T02:38:39;13.70;;;8.60;;
8895;SDS011;4484;48.928;10.066;2023-12-04T02:41:07;11.17;;;7.70;;
8895;SDS011;4484;48.928;10.066;2023-12-04T02:43:34;12.33;;;7.53;;
8895;SDS011;4484;48.928;10.066;2023-12-04T02:46:01;12.53;;;7.83;;
8895;SDS011;4484;48.928;10.066;2023-12-04T02:48:28;12.03;;;7.80;;
8895;SDS011;4484;48.928;10.066;2023-12-04T02:50:56;12.33;;;8.40;;
8895;SDS011;4484;48.928;10.066;2023-12-04T02:53:23;12.43;;;8.07;;
8895;SDS011;4484;48.928;10.066;2023-12-04T02:55:50;14.67;;;8.90;;
8895;SDS011;4484;48.928;10.066;2023-12-04T02:58:16;10.17;;;6.63;;
8895;SDS011;4484;48.928;10.066;2023-12-04T03:00:44;14.40;;;8.80;;
8895;SDS011;4484;48.928;10.066;2023-12-04T03:03:11;14.37;;;8.77;;
8895;SDS011;4484;48.928;10.066;2023-12-04T03:05:38;13.80;;;9.37;;
8895;SDS011;4484;48.928;10.066;2023-12-04T03:08:05;13.10;;;8.40;;
8895;SDS011;4484;48.928;10.066;2023-12-04T03:10:32;13.13;;;8.13;;
8895;SDS011;4484;48.928;10.066;2023-12-04T03:12:59;13.93;;;8.17;;
8895;SDS011;4484;48.928;10.066;2023-12-04T03:15:26;12.43;;;8.07;;
8895;SDS011;4484;48.928;10.066;2023-12-04T03:17:57;11.87;;;7.90;;
8895;SDS011;4484;48.928;10.066;2023-12-04T03:20:31;15.60;;;8.70;;
8895;SDS011;4484;48.928;10.066;2023-12-04T03:22:59;15.03;;;9.53;;
8895;SDS011;4484;48.928;10.066;2023-12-04T03:25:25;14.53;;;9.27;;
8895;SDS011;4484;48.928;10.066;2023-12-04T03:27:52;14.07;;;8.40;;
8895;SDS011;4484;48.928;10.066;2023-12-04T03:30:19;14.60;;;9.23;;
8895;SDS011;4484;48.928;10.066;2023-12-04T03:32:46;13.10;;;8.27;;
8895;SDS011;4484;48.928;10.066;2023-12-04T03:35:13;13.67;;;9.37;;
8895;SDS011;4484;48.928;10.066;2023-12-04T03:37:40;14.77;;;8.90;;
8895;SDS011;4484;48.928;10.066;2023-12-04T03:40:07;15.17;;;9.43;;
8895;SDS011;4484;48.928;10.066;2023-12-04T03:42:35;16.37;;;9.93;;
8895;SDS011;4484;48.928;10.066;2023-12-04T03:45:02;14.20;;;9.80;;
8895;SDS011;4484;48.928;10.066;2023-12-04T03:47:29;15.73;;;9.40;;
8895;SDS011;4484;48.928;10.066;2023-12-04T03:49:57;14.47;;;9.00;;
8895;SDS011;4484;48.928;10.066;2023-12-04T03:52:24;14.93;;;9.60;;
8895;SDS011;4484;48.928;10.066;2023-12-04T03:54:51;14.77;;;9.40;;
8895;SDS011;4484;48.928;10.066;2023-12-04T03:57:18;14.23;;;9.70;;
8895;SDS011;4484;48.928;10.066;2023-12-04T03:59:45;16.07;;;10.00;;
8895;SDS011;4484;48.928;10.066;2023-12-04T04:02:12;14.83;;;9.57;;
8895;SDS011;4484;48.928;10.066;2023-12-04T04:04:39;13.80;;;9.77;;
8895;SDS011;4484;48.928;10.066;2023-12-04T04:07:06;12.73;;;8.73;;
8895;SDS011;4484;48.928;10.066;2023-12-04T04:09:33;15.57;;;9.80;;
8895;SDS011;4484;48.928;10.066;2023-12-04T04:11:59;14.37;;;9.43;;
8895;SDS011;4484;48.928;10.066;2023-12-04T04:14:26;14.03;;;9.27;;
8895;SDS011;4484;48.928;10.066;2023-12-04T04:16:53;12.73;;;8.30;;
8895;SDS011;4484;48.928;10.066;2023-12-04T04:19:20;14.30;;;8.73;;
8895;SDS011;4484;48.928;10.066;2023-12-04T04:21:47;12.67;;;8.47;;
8895;SDS011;4484;48.928;10.066;2023-12-04T04:24:14;13.53;;;9.23;;
8895;SDS011;4484;48.928;10.066;2023-12-04T04:26:41;15.27;;;8.67;;
8895;SDS011;4484;48.928;10.066;2023-12-04T04:29:08;13.73;;;8.70;;
8895;SDS011;4484;48.928;10.066;2023-12-04T04:31:35;13.10;;;8.60;;
8895;SDS011;4484;48.928;10.066;2023-12-04T04:34:02;13.87;;;8.67;;
8895;SDS011;4484;48.928;10.066;2023-12-04T04:36:30;15.03;;;8.60;;
8895;SDS011;4484;48.928;10.066;2023-12-04T04:38:57;14.00;;;9.03;;
8895;SDS011;4484;48.928;10.066;2023-12-04T04:41:23;14.67;;;9.63;;
8895;SDS011;4484;48.928;10.066;2023-12-04T04:43:50;15.97;;;9.90;;
8895;SDS011;4484;48.928;10.066;2023-12-04T04:46:17;14.83;;;9.97;;
8895;SDS011;4484;48.928;10.066;2023-12-04T04:48:44;17.40;;;9.60;;
8895;SDS011;4484;48.928;10.066;2023-12-04T04:51:12;14.67;;;9.40;;
8895;SDS011;4484;48.928;10.066;2023-12-04T04:53:38;16.43;;;9.70;;
8895;SDS011;4484;48.928;10.066;2023-12-04T04:56:05;17.07;;;9.90;;
8895;SDS011;4484;48.928;10.066;2023-12-04T04:58:34;17.73;;;9.87;;
8895;SDS011;4484;48.928;10.066;2023-12-04T05:01:01;12.67;;;8.60;;
8895;SDS011;4484;48.928;10.066;2023-12-04T05:03:28;14.63;;;8.77;;
8895;SDS011;4484;48.928;10.066;2023-12-04T05:05:55;13.23;;;9.20;;
8895;SDS011;4484;48.928;10.066;2023-12-04T05:08:22;13.03;;;8.57;;
8895;SDS011;4484;48.928;10.066;2023-12-04T05:10:48;13.27;;;8.63;;
8895;SDS011;4484;48.928;10.066;2023-12-04T05:13:15;11.10;;;7.60;;
8895;SDS011;4484;48.928;10.066;2023-12-04T05:15:42;13.63;;;8.37;;
8895;SDS011;4484;48.928;10.066;2023-12-04T05:18:09;12.93;;;7.90;;
8895;SDS011;4484;48.928;10.066;2023-12-04T05:20:36;14.20;;;9.23;;
8895;SDS011;4484;48.928;10.066;2023-12-04T05:23:03;15.43;;;9.63;;
8895;SDS011;4484;48.928;10.066;2023-12-04T05:25:30;15.83;;;9.77;;
8895;SDS011;4484;48.928;10.066;2023-12-04T05:28:06;13.37;;;8.93;;
8895;SDS011;4484;48.928;10.066;2023-12-04T05:30:33;16.83;;;9.50;;
8895;SDS011;4484;48.928;10.066;2023-12-04T05:33:00;16.60;;;9.57;;
8895;SDS011;4484;48.928;10.066;2023-12-04T05:35:28;14.50;;;9.17;;
8895;SDS011;4484;48.928;10.066;2023-12-04T05:37:55;12.10;;;8.07;;
8895;SDS011;4484;48.928;10.066;2023-12-04T05:40:22;14.23;;;8.80;;
8895;SDS011;4484;48.928;10.066;2023-12-04T05:42:49;11.93;;;7.90;;
8895;SDS011;4484;48.928;10.066;2023-12-04T05:45:16;10.77;;;7.67;;
8895;SDS011;4484;48.928;10.066;2023-12-04T05:47:43;14.07;;;9.00;;
8895;SDS011;4484;48.928;10.066;2023-12-04T05:50:10;13.87;;;9.13;;
8895;SDS011;4484;48.928;10.066;2023-12-04T05:52:37;14.60;;;9.93;;
8895;SDS011;4484;48.928;10.066;2023-12-04T05:55:04;12.27;;;8.03;;
8895;SDS011;4484;48.928;10.066;2023-12-04T05:57:31;14.23;;;8.93;;
8895;SDS011;4484;48.928;10.066;2023-12-04T05:59:58;13.17;;;8.57;;
8895;SDS011;4484;48.928;10.066;2023-12-04T06:02:25;13.57;;;8.77;;
8895;SDS011;4484;48.928;10.066;2023-12-04T06:04:56;11.40;;;7.80;;
8895;SDS011;4484;48.928;10.066;2023-12-04T06:07:23;12.60;;;8.10;;
8895;SDS011;4484;48.928;10.066;2023-12-04T06:09:50;13.13;;;8.43;;
8895;SDS011;4484;48.928;10.066;2023-12-04T06:12:17;12.97;;;7.67;;
8895;SDS011;4484;48.928;10.066;2023-12-04T06:14:44;14.50;;;9.03;;
8895;SDS011;4484;48.928;10.066;2023-12-04T06:17:11;17.27;;;10.87;;
8895;SDS011;4484;48.928;10.066;2023-12-04T06:19:38;16.13;;;10.17;;
8895;SDS011;4484;48.928;10.066;2023-12-04T06:22:05;13.63;;;8.87;;
8895;SDS011;4484;48.928;10.066;2023-12-04T06:24:32;14.17;;;9.27;;
8895;SDS011;4484;48.928;10.066;2023-12-04T06:26:59;14.50;;;9.60;;
8895;SDS011;4484;48.928;10.066;2023-12-04T06:29:26;15.53;;;9.60;;
8895;SDS011;4484;48.928;10.066;2023-12-04T06:31:54;15.57;;;9.53;;
8895;SDS011;4484;48.928;10.066;2023-12-04T06:34:21;14.30;;;8.60;;
8895;SDS011;4484;48.928;10.066;2023-12-04T06:36:48;27.07;;;14.53;;
8895;SDS011;4484;48.928;10.066;2023-12-04T06:39:16;40.50;;;19.90;;
8895;SDS011;4484;48.928;10.066;2023-12-04T06:41:43;37.53;;;18.13;;
8895;SDS011;4484;48.928;10.066;2023-12-04T06:44:13;27.33;;;14.83;;
8895;SDS011;4484;48.928;10.066;2023-12-04T06:46:40;29.80;;;15.37;;
8895;SDS011;4484;48.928;10.066;2023-12-04T06:49:10;26.70;;;15.47;;
8895;SDS011;4484;48.928;10.066;2023-12-04T06:51:40;17.93;;;10.87;;
8895;SDS011;4484;48.928;10.066;2023-12-04T06:54:07;13.97;;;8.83;;
8895;SDS011;4484;48.928;10.066;2023-12-04T06:56:34;14.23;;;9.13;;
8895;SDS011;4484;48.928;10.066;2023-12-04T06:59:01;13.37;;;8.67;;
8895;SDS011;4484;48.928;10.066;2023-12-04T07:01:28;12.67;;;8.07;;
8895;SDS011;4484;48.928;10.066;2023-12-04T07:03:55;13.40;;;8.77;;
8895;SDS011;4484;48.928;10.066;2023-12-04T07:06:22;14.27;;;8.43;;
8895;SDS011;4484;48.928;10.066;2023-12-04T07:08:49;14.23;;;9.47;;
8895;SDS011;4484;48.928;10.066;2023-12-04T07:11:16;13.77;;;9.87;;
8895;SDS011;4484;48.928;10.066;2023-12-04T07:13:42;22.80;;;11.87;;
8895;SDS011;4484;48.928;10.066;2023-12-04T07:16:09;19.13;;;11.37;;
8895;SDS011;4484;48.928;10.066;2023-12-04T07:18:36;18.73;;;11.23;;
8895;SDS011;4484;48.928;10.066;2023-12-04T07:21:04;17.17;;;10.23;;
8895;SDS011;4484;48.928;10.066;2023-12-04T07:23:31;18.13;;;10.53;;
8895;SDS011;4484;48.928;10.066;2023-12-04T07:25:58;18.27;;;10.83;;
8895;SDS011;4484;48.928;10.066;2023-12-04T07:28:25;17.17;;;10.63;;
8895;SDS011;4484;48.928;10.066;2023-12-04T07:30:52;16.53;;;10.53;;
8895;SDS011;4484;48.928;10.066;2023-12-04T07:33:20;18.20;;;10.63;;
8895;SDS011;4484;48.928;10.066;2023-12-04T07:35:47;19.10;;;11.57;;
8895;SDS011;4484;48.928;10.066;2023-12-04T07:38:14;18.33;;;10.73;;
8895;SDS011;4484;48.928;10.066;2023-12-04T07:40:41;20.77;;;11.93;;
8895;SDS011;4484;48.928;10.066;2023-12-04T07:43:08;16.67;;;11.23;;
8895;SDS011;4484;48.928;10.066;2023-12-04T07:45:35;17.90;;;11.07;;
8895;SDS011;4484;48.928;10.066;2023-12-04T07:48:03;18.00;;;10.80;;
8895;SDS011;4484;48.928;10.066;2023-12-04T07:50:31;16.20;;;10.30;;
8895;SDS011;4484;48.928;10.066;2023-12-04T07:52:58;17.27;;;10.53;;
8895;SDS011;4484;48.928;10.066;2023-12-04T07:55:25;16.20;;;10.17;;
8895;SDS011;4484;48.928;10.066;2023-12-04T07:57:52;13.23;;;9.03;;
8895;SDS011;4484;48.928;10.066;2023-12-04T08:00:19;17.13;;;10.67;;
8895;SDS011;4484;48.928;10.066;2023-12-04T08:02:49;18.67;;;11.17;;
8895;SDS011;4484;48.928;10.066;2023-12-04T08:05:16;18.63;;;10.90;;
8895;SDS011;4484;48.928;10.066;2023-12-04T08:07:43;17.47;;;10.90;;
8895;SDS011;4484;48.928;10.066;2023-12-04T08:10:11;15.03;;;9.93;;
8895;SDS011;4484;48.928;10.066;2023-12-04T08:12:38;16.03;;;11.00;;
8895;SDS011;4484;48.928;10.066;2023-12-04T08:15:06;21.23;;;12.07;;
8895;SDS011;4484;48.928;10.066;2023-12-04T08:17:33;19.23;;;11.67;;
8895;SDS011;4484;48.928;10.066;2023-12-04T08:20:00;16.83;;;10.30;;
8895;SDS011;4484;48.928;10.066;2023-12-04T08:22:28;15.73;;;10.77;;
8895;SDS011;4484;48.928;10.066;2023-12-04T08:24:55;19.43;;;10.80;;
8895;SDS011;4484;48.928;10.066;2023-12-04T08:27:22;15.23;;;10.17;;
8895;SDS011;4484;48.928;10.066;2023-12-04T08:29:49;14.20;;;9.27;;
8895;SDS011;4484;48.928;10.066;2023-12-04T08:32:16;15.70;;;9.83;;
8895;SDS011;4484;48.928;10.066;2023-12-04T08:34:43;16.20;;;9.43;;
8895;SDS011;4484;48.928;10.066;2023-12-04T08:37:10;14.80;;;9.57;;
8895;SDS011;4484;48.928;10.066;2023-12-04T08:39:37;14.43;;;9.00;;
8895;SDS011;4484;48.928;10.066;2023-12-04T08:42:04;18.23;;;10.17;;
8895;SDS011;4484;48.928;10.066;2023-12-04T08:44:37;19.30;;;9.70;;
8895;SDS011;4484;48.928;10.066;2023-12-04T08:47:05;16.40;;;9.40;;
8895;SDS011;4484;48.928;10.066;2023-12-04T08:49:32;18.00;;;10.27;;
8895;SDS011;4484;48.928;10.066;2023-12-04T08:52:11;15.37;;;8.90;;
8895;SDS011;4484;48.928;10.066;2023-12-04T08:54:38;14.53;;;9.00;;
8895;SDS011;4484;48.928;10.066;2023-12-04T08:57:07;16.03;;;9.67;;
8895;SDS011;4484;48.928;10.066;2023-12-04T08:59:35;16.10;;;10.30;;
8895;SDS011;4484;48.928;10.066;2023-12-04T09:02:02;19.20;;;10.60;;
8895;SDS011;4484;48.928;10.066;2023-12-04T09:04:30;16.37;;;9.90;;
8895;SDS011;4484;48.928;10.066;2023-12-04T09:06:59;15.80;;;10.10;;
8895;SDS011;4484;48.928;10.066;2023-12-04T09:09:29;14.33;;;9.20;;
8895;SDS011;4484;48.928;10.066;2023-12-04T09:11:57;18.30;;;10.53;;
8895;SDS011;4484;48.928;10.066;2023-12-04T09:14:24;19.07;;;10.73;;
8895;SDS011;4484;48.928;10.066;2023-12-04T09:16:51;15.23;;;9.77;;
8895;SDS011;4484;48.928;10.066;2023-12-04T09:19:19;18.27;;;9.30;;
8895;SDS011;4484;48.928;10.066;2023-12-04T09:21:46;18.37;;;9.63;;
8895;SDS011;4484;48.928;10.066;2023-12-04T09:24:16;16.00;;;9.43;;
8895;SDS011;4484;48.928;10.066;2023-12-04T09:26:43;14.70;;;9.03;;
8895;SDS011;4484;48.928;10.066;2023-12-04T09:29:11;16.10;;;9.70;;
8895;SDS011;4484;48.928;10.066;2023-12-04T09:31:38;14.60;;;9.20;;
8895;SDS011;4484;48.928;10.066;2023-12-04T09:34:05;14.20;;;8.50;;
8895;SDS011;4484;48.928;10.066;2023-12-04T09:36:32;14.50;;;9.63;;
8895;SDS011;4484;48.928;10.066;2023-12-04T09:39:00;14.17;;;8.63;;
8895;SDS011;4484;48.928;10.066;2023-12-04T09:41:27;13.43;;;8.40;;
8895;SDS011;4484;48.928;10.066;2023-12-04T09:43:54;13.77;;;8.27;;
8895;SDS011;4484;48.928;10.066;2023-12-04T09:46:21;12.27;;;7.97;;
8895;SDS011;4484;48.928;10.066;2023-12-04T09:48:48;12.97;;;8.70;;
8895;SDS011;4484;48.928;10.066;2023-12-04T09:51:15;14.03;;;8.60;;
8895;SDS011;4484;48.928;10.066;2023-12-04T09:53:46;13.70;;;8.47;;
8895;SDS011;4484;48.928;10.066;2023-12-04T09:56:14;25.17;;;10.03;;
8895;SDS011;4484;48.928;10.066;2023-12-04T09:58:42;17.57;;;7.37;;
8895;SDS011;4484;48.928;10.066;2023-12-04T10:01:11;12.67;;;7.70;;
8895;SDS011;4484;48.928;10.066;2023-12-04T10:03:38;23.23;;;8.93;;
8895;SDS011;4484;48.928;10.066;2023-12-04T10:06:08;13.80;;;8.40;;
8895;SDS011;4484;48.928;10.066;2023-12-04T10:08:35;15.93;;;9.70;;
8895;SDS011;4484;48.928;10.066;2023-12-04T10:11:02;14.37;;;8.33;;
8895;SDS011;4484;48.928;10.066;2023-12-04T10:13:29;13.17;;;8.07;;
8895;SDS011;4484;48.928;10.066;2023-12-04T10:16:35;20.13;;;10.77;;
8895;SDS011;4484;48.928;10.066;2023-12-04T10:21:57;14.87;;;8.73;;
8895;SDS011;4484;48.928;10.066;2023-12-04T10:27:00;13.77;;;9.07;;
8895;SDS011;4484;48.928;10.066;2023-12-04T10:29:39;15.20;;;8.30;;
8895;SDS011;4484;48.928;10.066;2023-12-04T10:32:08;15.10;;;9.47;;
8895;SDS011;4484;48.928;10.066;2023-12-04T10:34:35;14.67;;;9.07;;
8895;SDS011;4484;48.928;10.066;2023-12-04T10:37:03;12.50;;;8.33;;
8895;SDS011;4484;48.928;10.066;2023-12-04T10:39:32;15.97;;;9.33;;
8895;SDS011;4484;48.928;10.066;2023-12-04T10:42:22;16.50;;;9.63;;
8895;SDS011;4484;48.928;10.066;2023-12-04T10:44:52;13.70;;;8.50;;
8895;SDS011;4484;48.928;10.066;2023-12-04T10:47:21;13.00;;;8.07;;
8895;SDS011;4484;48.928;10.066;2023-12-04T10:49:51;12.63;;;8.20;;
8895;SDS011;4484;48.928;10.066;2023-12-04T10:52:19;15.67;;;8.90;;
8895;SDS011;4484;48.928;10.066;2023-12-04T10:54:46;13.13;;;8.17;;
8895;SDS011;4484;48.928;10.066;2023-12-04T10:57:26;14.00;;;9.90;;
8895;SDS011;4484;48.928;10.066;2023-12-04T10:59:56;17.07;;;9.63;;
8895;SDS011;4484;48.928;10.066;2023-12-04T11:02:26;14.90;;;8.47;;
8895;SDS011;4484;48.928;10.066;2023-12-04T11:04:55;12.73;;;8.10;;
8895;SDS011;4484;48.928;10.066;2023-12-04T11:07:29;15.77;;;9.47;;
8895;SDS011;4484;48.928;10.066;2023-12-04T11:10:22;13.07;;;8.03;;
8895;SDS011;4484;48.928;10.066;2023-12-04T11:12:56;11.83;;;7.40;;
8895;SDS011;4484;48.928;10.066;2023-12-04T11:15:29;12.47;;;7.40;;
8895;SDS011;4484;48.928;10.066;2023-12-04T11:18:01;13.37;;;7.37;;
8895;SDS011;4484;48.928;10.066;2023-12-04T11:20:29;13.83;;;7.60;;
8895;SDS011;4484;48.928;10.066;2023-12-04T11:22:59;12.50;;;7.87;;
8895;SDS011;4484;48.928;10.066;2023-12-04T11:25:26;13.43;;;8.43;;
8895;SDS011;4484;48.928;10.066;2023-12-04T11:27:56;11.17;;;7.23;;
8895;SDS011;4484;48.928;10.066;2023-12-04T11:30:23;11.33;;;6.67;;
8895;SDS011;4484;48.928;10.066;2023-12-04T11:32:51;12.37;;;7.07;;
8895;SDS011;4484;48.928;10.066;2023-12-04T11:35:24;13.93;;;7.37;;
8895;SDS011;4484;48.928;10.066;2023-12-04T11:37:52;11.87;;;7.77;;
8895;SDS011;4484;48.928;10.066;2023-12-04T11:40:19;11.70;;;7.37;;
8895;SDS011;4484;48.928;10.066;2023-12-04T11:42:46;12.83;;;7.83;;
8895;SDS011;4484;48.928;10.066;2023-12-04T11:45:20;11.80;;;6.97;;
8895;SDS011;4484;48.928;10.066;2023-12-04T11:47:50;10.33;;;6.60;;
8895;SDS011;4484;48.928;10.066;2023-12-04T11:50:20;14.13;;;7.77;;
8895;SDS011;4484;48.928;10.066;2023-12-04T11:52:48;15.00;;;7.97;;
8895;SDS011;4484;48.928;10.066;2023-12-04T11:55:16;12.27;;;7.43;;
8895;SDS011;4484;48.928;10.066;2023-12-04T11:57:54;11.83;;;7.77;;
8895;SDS011;4484;48.928;10.066;2023-12-04T12:00:21;11.93;;;7.37;;
8895;SDS011;4484;48.928;10.066;2023-12-04T12:05:39;11.90;;;7.87;;
8895;SDS011;4484;48.928;10.066;2023-12-04T12:08:08;13.90;;;8.90;;
8895;SDS011;4484;48.928;10.066;2023-12-04T12:10:35;16.37;;;9.80;;
8895;SDS011;4484;48.928;10.066;2023-12-04T12:13:02;26.17;;;14.97;;
8895;SDS011;4484;48.928;10.066;2023-12-04T12:15:30;19.50;;;13.40;;
8895;SDS011;4484;48.928;10.066;2023-12-04T12:17:59;13.83;;;9.80;;
8895;SDS011;4484;48.928;10.066;2023-12-04T12:20:26;12.23;;;8.13;;
8895;SDS011;4484;48.928;10.066;2023-12-04T12:22:53;14.17;;;8.47;;
8895;SDS011;4484;48.928;10.066;2023-12-04T12:25:20;15.57;;;9.13;;
8895;SDS011;4484;48.928;10.066;2023-12-04T12:27:50;12.73;;;8.73;;
8895;SDS011;4484;48.928;10.066;2023-12-04T12:30:17;15.57;;;9.07;;
8895;SDS011;4484;48.928;10.066;2023-12-04T12:32:44;13.80;;;8.67;;
8895;SDS011;4484;48.928;10.066;2023-12-04T12:35:11;11.80;;;8.27;;
8895;SDS011;4484;48.928;10.066;2023-12-04T12:37:38;13.20;;;9.03;;
8895;SDS011;4484;48.928;10.066;2023-12-04T12:40:05;12.37;;;8.30;;
8895;SDS011;4484;48.928;10.066;2023-12-04T12:42:36;14.43;;;9.10;;
8895;SDS011;4484;48.928;10.066;2023-12-04T12:45:08;12.97;;;8.40;;
8895;SDS011;4484;48.928;10.066;2023-12-04T12:47:42;12.63;;;8.13;;
8895;SDS011;4484;48.928;10.066;2023-12-04T12:50:09;15.40;;;8.87;;
8895;SDS011;4484;48.928;10.066;2023-12-04T12:52:38;12.57;;;8.20;;
8895;SDS011;4484;48.928;10.066;2023-12-04T12:55:05;12.40;;;8.50;;
8895;SDS011;4484;48.928;10.066;2023-12-04T12:57:32;14.17;;;8.63;;
8895;SDS011;4484;48.928;10.066;2023-12-04T12:59:59;14.90;;;9.33;;
8895;SDS011;4484;48.928;10.066;2023-12-04T13:02:26;11.70;;;8.20;;
8895;SDS011;4484;48.928;10.066;2023-12-04T13:04:53;13.83;;;9.40;;
8895;SDS011;4484;48.928;10.066;2023-12-04T13:07:22;16.80;;;10.40;;
8895;SDS011;4484;48.928;10.066;2023-12-04T13:09:49;16.13;;;10.87;;
8895;SDS011;4484;48.928;10.066;2023-12-04T13:12:16;19.37;;;12.07;;
8895;SDS011;4484;48.928;10.066;2023-12-04T13:14:43;14.80;;;9.87;;
8895;SDS011;4484;48.928;10.066;2023-12-04T13:17:10;15.80;;;9.93;;
8895;SDS011;4484;48.928;10.066;2023-12-04T13:19:37;15.43;;;10.30;;
8895;SDS011;4484;48.928;10.066;2023-12-04T13:22:05;16.07;;;9.57;;
8895;SDS011;4484;48.928;10.066;2023-12-04T13:24:32;16.73;;;10.37;;
8895;SDS011;4484;48.928;10.066;2023-12-04T13:26:59;16.10;;;10.30;;
8895;SDS011;4484;48.928;10.066;2023-12-04T13:29:26;16.20;;;10.73;;
8895;SDS011;4484;48.928;10.066;2023-12-04T13:31:53;16.63;;;10.77;;
8895;SDS011;4484;48.928;10.066;2023-12-04T13:34:20;14.77;;;10.57;;
8895;SDS011;4484;48.928;10.066;2023-12-04T13:36:49;22.30;;;10.90;;
8895;SDS011;4484;48.928;10.066;2023-12-04T13:39:16;14.87;;;9.87;;
8895;SDS011;4484;48.928;10.066;2023-12-04T13:41:44;18.03;;;11.17;;
8895;SDS011;4484;48.928;10.066;2023-12-04T13:44:30;14.17;;;9.43;;
8895;SDS011;4484;48.928;10.066;2023-12-04T13:46:59;17.77;;;10.90;;
8895;SDS011;4484;48.928;10.066;2023-12-04T13:49:27;16.20;;;10.73;;
8895;SDS011;4484;48.928;10.066;2023-12-04T13:51:54;15.87;;;10.27;;
8895;SDS011;4484;48.928;10.066;2023-12-04T13:54:21;16.13;;;10.57;;
8895;SDS011;4484;48.928;10.066;2023-12-04T13:57:00;14.83;;;9.90;;
8895;SDS011;4484;48.928;10.066;2023-12-04T13:59:30;16.23;;;10.73;;
8895;SDS011;4484;48.928;10.066;2023-12-04T14:01:59;20.07;;;11.50;;
8895;SDS011;4484;48.928;10.066;2023-12-04T14:04:29;19.10;;;10.97;;
8895;SDS011;4484;48.928;10.066;2023-12-04T14:06:57;16.40;;;12.20;;
8895;SDS011;4484;48.928;10.066;2023-12-04T14:09:28;20.37;;;11.80;;
8895;SDS011;4484;48.928;10.066;2023-12-04T14:11:55;20.37;;;12.00;;
8895;SDS011;4484;48.928;10.066;2023-12-04T14:14:23;18.63;;;11.63;;
8895;SDS011;4484;48.928;10.066;2023-12-04T14:16:49;15.77;;;10.77;;
8895;SDS011;4484;48.928;10.066;2023-12-04T14:19:16;18.50;;;10.97;;
8895;SDS011;4484;48.928;10.066;2023-12-04T14:21:47;17.97;;;10.73;;
8895;SDS011;4484;48.928;10.066;2023-12-04T14:24:14;21.43;;;12.20;;
8895;SDS011;4484;48.928;10.066;2023-12-04T14:26:41;17.50;;;10.73;;
8895;SDS011;4484;48.928;10.066;2023-12-04T14:29:08;19.80;;;11.07;;
8895;SDS011;4484;48.928;10.066;2023-12-04T14:31:35;19.90;;;12.23;;
8895;SDS011;4484;48.928;10.066;2023-12-04T14:34:03;18.13;;;11.57;;
8895;SDS011;4484;48.928;10.066;2023-12-04T14:36:30;19.50;;;11.67;;
8895;SDS011;4484;48.928;10.066;2023-12-04T14:38:58;16.57;;;10.90;;
8895;SDS011;4484;48.928;10.066;2023-12-04T14:41:27;19.93;;;11.83;;
8895;SDS011;4484;48.928;10.066;2023-12-04T14:43:54;18.43;;;12.23;;
8895;SDS011;4484;48.928;10.066;2023-12-04T14:46:22;20.83;;;12.83;;
8895;SDS011;4484;48.928;10.066;2023-12-04T14:48:49;19.13;;;12.33;;
8895;SDS011;4484;48.928;10.066;2023-12-04T14:51:16;26.37;;;13.80;;
8895;SDS011;4484;48.928;10.066;2023-12-04T14:53:43;27.07;;;14.03;;
8895;SDS011;4484;48.928;10.066;2023-12-04T14:56:17;21.47;;;13.07;;